Tiempo atmosférico en la estación meteorológica de Águilas, Murcia (26 m.)



Fecha
DESCASC
Temp. máxima en grados centígrados (hora)
DESCASC
Temp. mínima en grados centígrados (hora)
DESCASC
Temp. media en grados centígrados
DESCASC
Racha de viento máxima en m/sg (hora)
DESCASC
Velocidad máxima media en intervalos de 10 minutos(hora)
DESCASC
Precipitaciones diarias en mm
DESCASC
Precipitaciones de 00:00 a 06:00 en mm
DESCASC
Precipitaciones de 06:00 a 12:00 en mm
DESCASC
Precipitaciones de 12:00 a 18:00 en mm
DESCASC
Precipitaciones de 18:00 a 24:00 en mm
DESCASC
18-01-2018 19.5 (14:00) 11.3 (00:00) 15.4 10 (15:10) 6.39 (14:30) 0 0 0 0 0
17-01-2018 19.7 (16:30) 8.5 (07:20) 14.1 4.72 (14:10) 2.78 (14:10) 0 0 0 0 0
16-01-2018 18.3 (15:00) 5.3 (07:30) 11.8 5.83 (12:50) 3.06 (12:50) 0.2 0 0.2 0 0
15-01-2018 14.5 (14:20) 8.4 (05:10) 11.4 8.89 (02:10) 4.72 (02:50) 0 0 0 0 0
14-01-2018 16.8 (11:10) 8 (00:00) 12.4 10.83 (19:00) 6.11 (00:40) 2.6 0 0 0 2.6
13-01-2018 15.1 (11:50) 6.2 (00:00) 10.7 8.89 (23:59) 4.72 (23:59) 0 0 0 0 0
12-01-2018 19 (13:30) 6.8 (00:00) 12.9 9.17 (04:10) 5.56 (03:20) 0 0 0 0 0
11-01-2018 18 (14:20) 8.5 (00:00) 13.3 16.11 (19:30) 8.61 (18:40) 0 0 0 0 0
10-01-2018 19.6 (14:50) 8.9 (00:00) 14.3 18.33 (15:10) 10.56 (15:10) 3 2.8 0.2 0 0
09-01-2018 15.5 (11:40) 5 (00:00) 10.3 6.39 (13:00) 3.61 (13:10) 0 0 0 0 0
08-01-2018 13.9 (11:30) 4.1 (00:00) 9 5 (12:30) 2.78 (12:50) 0 0 0 0 0
07-01-2018 14.3 (15:50) 6.3 (00:00) 10.3 13.89 (03:10) 7.5 (03:10) 0 0 0 0 0
06-01-2018 16.1 (12:40) 8.3 (00:00) 12.2 16.11 (18:10) 8.89 (18:10) 0.2 0 0 0.2 0
05-01-2018 17.4 (12:00) 9.3 (00:00) 13.3 4.72 (14:40) 2.78 (14:30) 0 0 0 0 0
04-01-2018 22.3 (15:20) 10.6 (08:40) 16.4 4.17 (01:00) 2.5 (03:30) 0 0 0 0 0
03-01-2018 21.6 (16:30) 11.3 (00:00) 16.5 7.22 (06:50) 4.44 (06:50) 0 0 0 0 0
02-01-2018 20.9 (15:20) 9.8 (00:00) 15.3 8.06 (00:10) 4.72 (00:10) 0 0 0 0 0
01-01-2018 19.4 (10:50) 9.9 (00:00) 14.6 10.56 (03:10) 5.28 (00:10) 0 0 0 0 0
31-12-2017 20.2 (18:00) 8.9 (00:00) 14.6 13.06 (21:30) 7.5 (19:40) 0.2 0 0 0 0.2
30-12-2017 19.6 (14:10) 11.3 (00:00) 15.5 7.5 (07:10) 3.61 (06:50) 0 0 0 0 0
29-12-2017 25.1 (14:40) 13.8 (00:00) 19.5 11.67 (11:40) 6.94 (12:40) 0 0 0 0 0
28-12-2017 23.9 (15:10) 12.6 (00:00) 18.3 15.83 (15:00) 9.17 (14:50) 0 0 0 0 0
27-12-2017 20 (13:50) 13.2 (00:00) 16.6 20.28 (07:40) 10.83 (07:40) 0 0 0 0 0
26-12-2017 19.4 (15:00) 10.2 (00:00) 14.8 19.44 (16:10) 10.56 (16:10) 0 0 0 0 0
25-12-2017 17.3 (12:10) 8.5 (00:00) 12.9 6.94 (15:10) 3.89 (13:50) 0 0 0 0 0
24-12-2017 18.1 (13:00) 9.1 (00:00) 13.6 7.78 (14:40) 4.72 (13:50) 0 0 0 0 0

Gráficas

Temp. máximas Temp. mínimas Temp. medias Precipitaciones Rachas de viento máximas Velocidades máximas media en intervalos de 10 minutos

Datos horarios

Fecha y hora oficial Temperatura (ºC) Velocidad del viento (km/h) Dirección del viento Racha (km/h) Dirección de racha Precipitación (mm) Presión (hPa) Tendencia (hPa) Humedad (%)
2018-01-22 23:00:00 12.7 7 Nordeste 10 Nordeste 0 1020.6 0.4 72
2018-01-22 22:00:00 13 2 Norte 6 Norte 0 1020.3 0.3 71
2018-01-22 21:00:00 13.9 0 Calma 6 Nordeste 0 1020.2 0.5 70
2018-01-22 20:00:00 15 3 Nordeste 6 Nordeste 0 1020.2 0.4 70
2018-01-22 19:00:00 16.6 3 Sudeste 5 Sur 0 1020 0.1 66
2018-01-22 18:00:00 19 2 Sur 10 Sudeste 0 1019.7 -0.5 57
2018-01-22 17:00:00 19.8 5 Sur 10 Sur 0 1019.8 -0.9 53
2018-01-22 16:00:00 21.2 3 Sudoeste 12 Sur 0 1019.9 -1.6 46
2018-01-22 15:00:00 20.4 5 Sur 16 Sur 0 1020.2 -1.8 50
2018-01-22 14:00:00 19.8 9 Sudoeste 18 Sudoeste 0 1020.7 -1.8 40
2018-01-22 13:00:00 20 10 Sudoeste 25 Sudoeste 0 1021.5 -0.9 47
2018-01-22 12:00:00 22.2 6 Sudoeste 15 Sur 0 1022 -0.1 32
2018-01-22 11:00:00 23.2 5 Sudoeste 14 Oeste 0 1022.5 0.6 28
2018-01-22 10:00:00 20.4 5 Oeste 19 Noroeste 0 1022.4 0.7 34
2018-01-22 09:00:00 16.1 13 Noroeste 21 Noroeste 0 1022.1 0.6 45
2018-01-22 08:00:00 13.7 9 Oeste 16 Noroeste 0 1021.9 0.3 52
2018-01-22 07:00:00 15.4 6 Noroeste 15 Noroeste 0 1021.7 -0.3 46
2018-01-22 06:00:00 15.5 9 Noroeste 16 Noroeste 0 1021.5 -0.6 46
2018-01-22 05:00:00 15.7 9 Noroeste 22 Noroeste 0 1021.6 -0.8 46
2018-01-22 04:00:00 15.7 7 Noroeste 18 Noroeste 0 1022 -0.7 47
2018-01-22 03:00:00 17 11 Noroeste 18 Oeste 0 1022.1 -0.8 43
2018-01-22 02:00:00 16 0 Calma 19 Norte 0 1022.4 -0.2 46
2018-01-22 01:00:00 17.6 4 Norte 17 Norte 0 1022.7 0.4 42
2018-01-22 00:00:00 15.6 3 Nordeste 13 Sur 0 1022.9 1.2 48
2018-01-21 23:00:00 16.3 5 Sudoeste 12 Sur 0 1022.6 1 46
2018-01-21 22:00:00 17.9 9 Sudoeste 18 Sudoeste 0 1022.3 1.3 40
2018-01-21 21:00:00 17.5 4 Norte 17 Norte 0 1021.7 1.2 43
2018-01-21 20:00:00 16.3 7 Norte 14 Norte 0 1021.6 1.4 55
2018-01-21 19:00:00 16.6 4 Sudoeste 10 Oeste 0 1021 1 59
2018-01-21 18:00:00 18.5 3 Sur 13 Sudeste 0 1020.5 1.1 52
2018-01-21 17:00:00 19.9 5 Sudeste 32 Sudeste 0 1020.2 0.2 46
2018-01-21 16:00:00 20.6 5 Sudeste 25 Sudeste 0 1020 -1.1 42
2018-01-21 15:00:00 22 9 Sudoeste 25 Sudoeste 0 1019.4 -2.8 38
2018-01-21 14:00:00 22.9 6 Sudoeste 28 Sudoeste 0 1020 -2.7 30
2018-01-21 13:00:00 24.8 10 Oeste 24 Oeste 0 1021.1 -1.2 26
2018-01-21 12:00:00 23.2 18 Oeste 29 Oeste 0 1022.2 0.7 23
2018-01-21 11:00:00 21.2 14 Oeste 29 Noroeste 0 1022.7 1.1 25
2018-01-21 10:00:00 18.1 21 Noroeste 34 Noroeste 0 1022.3 1.2 28
2018-01-21 09:00:00 17.3 15 Noroeste 32 Noroeste 0 1021.5 0.7 26
2018-01-21 08:00:00 13.2 15 Noroeste 27 Noroeste 0 1021.6 0.7 33
2018-01-21 07:00:00 13.3 9 Sur 15 Sur 0 1021.1 -0.1 35
2018-01-21 06:00:00 16.1 6 Sur 24 Noroeste 0 1020.8 -0.4 27
2018-01-21 05:00:00 13.2 9 Noroeste 20 Norte 0 1020.9 -0.3 38
2018-01-21 04:00:00 16.5 10 Norte 27 Noroeste 0 1021.2 -0.4 26
2018-01-21 03:00:00 16.1 17 Noroeste 37 Norte 0 1021.2 -0.5 29
2018-01-21 02:00:00 16 17 Noroeste 36 Norte 0 1021.2 -0.1 31
2018-01-21 01:00:00 15.4 5 Norte 23 Noroeste 0 1021.6 0.4 31
2018-01-21 00:00:00 13.2 8 Norte 15 Norte 0 1021.7 0.7 41
2018-01-20 23:00:00 12.9 7 Norte 17 Norte 0 1021.3 0.6 49
2018-01-20 22:00:00 12.6 3 Norte 12 Norte 0 1021.2 0.8 65
2018-01-20 21:00:00 12.6 4 Noroeste 16 Noroeste 0 1021 0.5 62
2018-01-20 20:00:00 12.7 2 Norte 6 Nordeste 0 1020.7 0.2 74
2018-01-20 19:00:00 15 3 Norte 14 Sudoeste 0 1020.4 -0.2 72
2018-01-20 18:00:00 17.1 4 Oeste 13 Oeste 0 1020.5 -0.7 59
2018-01-20 17:00:00 18 6 Oeste 21 Sudoeste 0 1020.5 -1.1 58
2018-01-20 16:00:00 18.6 10 Oeste 18 Oeste 0 1020.6 -1.8 52
2018-01-20 15:00:00 18.1 8 Sudoeste 19 Sudoeste 0 1021.2 -1.8 59
2018-01-20 14:00:00 18.5 10 Sudoeste 25 Sudoeste 0 1021.6 -1.9 50
2018-01-20 13:00:00 17.8 11 Sudoeste 21 Sur 0 1022.4 0.2 42
2018-01-20 12:00:00 18.7 5 Sur 11 Sudeste 0 1023 1.3 36
2018-01-20 11:00:00 17.1 6 Sudeste 15 Sudeste 0 1023.5 2.1 47
2018-01-20 10:00:00 16.1 2 Sudoeste 26 Noroeste 0 1022.2 1.6 39
2018-01-20 09:00:00 13.9 17 Noroeste 28 Noroeste 0 1021.7 1.4 40
2018-01-20 08:00:00 11.3 12 Noroeste 21 Oeste 0 1021.4 1.7 50
2018-01-20 07:00:00 11.4 8 Noroeste 23 Norte 0 1020.6 0.8 51
2018-01-20 06:00:00 11.3 14 Noroeste 27 Noroeste 0 1020.3 0.5 52
2018-01-20 05:00:00 13.5 18 Norte 24 Norte 0 1019.7 0.4 43
2018-01-20 04:00:00 11.7 6 Oeste 18 Noroeste 0 1019.8 0.6 51
2018-01-20 03:00:00 11.9 13 Oeste 19 Oeste 0 1019.8 0.7 52
2018-01-20 02:00:00 11.9 8 Sudoeste 14 Sudoeste 0 1019.3 0.3 56
2018-01-20 01:00:00 10.8 8 Oeste 19 Noroeste 0 1019.2 0.6 65
2018-01-20 00:00:00 9.8 5 Noroeste 12 Norte 0 1019.1 0.9 76
2018-01-19 23:00:00 10.5 6 Norte 10 Noroeste 0 1019 1.2 79
2018-01-19 22:00:00 10.2 3 Noroeste 8 Norte 0 1018.6 1.3 82
2018-01-19 21:00:00 11.2 5 Norte 9 Norte 0 1018.2 1.1 81
2018-01-19 20:00:00 12.1 4 Norte 10 Norte 0 1017.8 1.5 80
2018-01-19 19:00:00 13.2 4 Noroeste 8 Oeste 0 1017.3 1.8 76
2018-01-19 18:00:00 15.1 5 Sudoeste 13 Sudoeste 0 1017.1 1.8 71
2018-01-19 17:00:00 15.3 6 Sudoeste 13 Sur 0 1016.3 1 68
2018-01-19 16:00:00 16.4 7 Sur 12 Sur 0 1015.5 -0.5 60
2018-01-19 15:00:00 15.9 5 Sur 13 Sudeste 0 1015.3 -1.6 59
2018-01-19 14:00:00 16.2 8 Sudeste 13 Sudeste 0 1015.3 -1.7 54
2018-01-19 13:00:00 16.9 3 Nordeste 7 Nordeste 0 1016 -0.4 50
2018-01-19 12:00:00 15.9 4 Noroeste 10 Norte 0 1016.9 0.9 56
2018-01-19 11:00:00 14.6 5 Norte 9 Norte 0 1017 1.1 64
2018-01-19 10:00:00 13.4 3 Nordeste 9 Norte 0 1016.4 2 69
2018-01-19 09:00:00 12.6 6 Noroeste 13 Noroeste 0 1016 2.5 72
2018-01-19 08:00:00 12.5 5 Norte 10 Norte 0 1015.9 1.9 73
2018-01-19 07:00:00 12.1 3 Sur 7 Oeste 0 1014.4 0.3 72
2018-01-19 06:00:00 12.1 6 Noroeste 14 Norte 0 1013.5 -1 74
2018-01-19 05:00:00 12.1 5 Nordeste 10 Nordeste 0 1014 -0.6 74
2018-01-19 04:00:00 12.1 0 Calma 10 Noroeste 0 1014.1 -2.5 72
2018-01-19 03:00:00 12.4 3 Noroeste 8 Sudeste 0 1014.5 -2.2 70
2018-01-19 02:00:00 12.8 5 Norte 12 Norte 0 1014.6 -2.4 69
2018-01-19 01:00:00 12.1 4 Noroeste 6 Noroeste 0 1016.6 -0.5 72
2018-01-19 00:00:00 12.8 3 Nordeste 9 Norte 0 1016.7 -0.4 70
2018-01-18 23:00:00 12.7 2 Sudoeste 9 Norte 0 1017 -0.3 70
2018-01-18 22:00:00 13.1 5 Norte 8 Norte 0 1017.1 -0.7 70
2018-01-18 21:00:00 13.7 4 Este 15 Nordeste 0 1017.1 -0.1 67
2018-01-18 20:00:00 14.2 8 Nordeste 21 Este 0 1017.3 -0.4 70
2018-01-18 19:00:00 14.5 12 Este 22 Este 0 1017.8 0 66
2018-01-18 18:00:00 14.8 7 Este 25 Este 0 1017.2 -1 68
2018-01-18 17:00:00 15.5 10 Este 31 Este 0 1017.7 -0.8 64
2018-01-18 16:00:00 16.7 15 Este 36 Sudeste 0 1017.8 -1.5 58
2018-01-18 15:00:00 17.1 20 Sudeste 35 Sudeste 0 1018.2 -2.7 57
2018-01-18 14:00:00 19.1 20 Sudeste 34 Sudeste 0 1018.5 -3.2 38
2018-01-18 13:00:00 18.9 15 Este 27 Este 0 1019.3 -2.2 32
2018-01-18 12:00:00 17.7 12 Este 28 Este 0 1020.9 -0.2 34
2018-01-18 11:00:00 16.8 15 Este 26 Este 0 1021.7 0.7 36
2018-01-18 10:00:00 15.6 10 Este 19 Este 0 1021.5 0.7 41
2018-01-18 09:00:00 12.7 5 Este 16 Este 0 1021.1 0.4 62
2018-01-18 08:00:00 12.1 7 Nordeste 14 Nordeste 0 1021 0.1 73
2018-01-18 07:00:00 12.9 8 Nordeste 22 Nordeste 0 1020.8 -0.3 72
2018-01-18 06:00:00 13 7 Nordeste 15 Nordeste 0 1020.7 -0.4 71
2018-01-18 05:00:00 13.5 8 Nordeste 17 Nordeste 0 1020.9 0 69
2018-01-18 04:00:00 13.2 6 Nordeste 18 Nordeste 0 1021.1 0 66
2018-01-18 03:00:00 14 9 Nordeste 24 Nordeste 0 1021.1 0.1 62
2018-01-18 02:00:00 14.2 10 Nordeste 22 Este 0 1020.9 0.2 59
2018-01-18 01:00:00 13.3 6 Nordeste 15 Nordeste 0 1021.1 0.8 54
2018-01-18 00:00:00 11.3 4 Nordeste 9 Norte 0 1021 0.9 60
2018-01-17 23:00:00 12.3 4 Este 13 Nordeste 0 1020.7 1.4 56
2018-01-17 22:00:00 12.4 6 Nordeste 13 Nordeste 0 1020.3 1.6 63
2018-01-17 21:00:00 12.2 4 Nordeste 13 Nordeste 0 1020.1 1.9 64
2018-01-17 20:00:00 12.3 4 Este 9 Norte 0 1019.3 1.5 62
2018-01-17 19:00:00 14.4 4 Noroeste 10 Sudoeste 0 1018.7 1.1 57
2018-01-17 18:00:00 17.4 3 Sur 10 Sur 0 1018.2 0.5 40
2018-01-17 17:00:00 19.2 4 Sudoeste 11 Oeste 0 1017.8 0 39
2018-01-17 16:00:00 18.8 3 Oeste 14 Sur 0 1017.6 -1.2 40
2018-01-17 15:00:00 17.7 9 Sur 17 Sudoeste 0 1017.7 -2.2 48
2018-01-17 14:00:00 18.6 8 Sudoeste 15 Sudoeste 0 1017.8 -2.2 42
2018-01-17 13:00:00 18.3 4 Sudoeste 13 Sudoeste 0 1018.8 -0.7 54
2018-01-17 12:00:00 17.1 9 Sur 14 Sudoeste 0 1019.9 0.9 58
2018-01-17 11:00:00 17.7 4 Sur 6 Sudoeste 0 1020 1.6 47
2018-01-17 10:00:00 15.2 3 Nordeste 13 Nordeste 0 1019.5 1.2 56
2018-01-17 09:00:00 9.8 4 Nordeste 14 Norte 0 1019 1 73
2018-01-17 08:00:00 9.4 9 Norte 13 Norte 0 1018.4 0.3 75
2018-01-17 07:00:00 8.9 3 Nordeste 10 Nordeste 0 1018.3 -0.1 77
2018-01-17 06:00:00 9.4 7 Norte 10 Nordeste 0 1018 -0.8 75
2018-01-17 05:00:00 10.1 6 Nordeste 12 Nordeste 0 1018.1 -1.5 74
2018-01-17 04:00:00 9.7 8 Nordeste 11 Nordeste 0 1018.4 -1.9 74
2018-01-17 03:00:00 10.1 7 Nordeste 13 Nordeste 0 1018.8 -1.8 69
2018-01-17 02:00:00 10.6 7 Nordeste 9 Nordeste 0 1019.6 -1.2 67
2018-01-17 01:00:00 10 6 Nordeste 11 Nordeste 0 1020.3 -0.6 66
2018-01-17 00:00:00 9.8 2 Noroeste 11 Norte 0 1020.6 -0.4 66
2018-01-16 23:00:00 10.4 3 Norte 10 Nordeste 0 1020.8 -0.1 65
2018-01-16 22:00:00 11.5 4 Nordeste 9 Norte 0 1020.9 0.4 63
2018-01-16 21:00:00 12.6 4 Nordeste 12 Nordeste 0 1021 0.5 62
2018-01-16 20:00:00 12.8 5 Norte 8 Norte 0 1020.9 -0.1 62
2018-01-16 19:00:00 14.2 4 Este 8 Nordeste 0 1020.5 -0.8 59
2018-01-16 18:00:00 16.6 3 Este 7 Sur 0 1020.5 -1.3 54
2018-01-16 17:00:00 17.6 4 Sudoeste 18 Sudoeste 0 1021 -1.9 50
2018-01-16 16:00:00 18 5 Sudoeste 17 Sur 0 1021.3 -2.9 48
2018-01-16 15:00:00 18.2 6 Sur 17 Sudoeste 0 1021.8 -3.4 29
2018-01-16 14:00:00 17 7 Sur 16 Sudoeste 0 1022.9 -2.7 30
2018-01-16 13:00:00 15.8 9 Sudoeste 21 Sudoeste 0 1024.2 -1.2 43
2018-01-16 12:00:00 15.6 5 Sudoeste 11 Sudoeste 0 1025.2 0.4 38
2018-01-16 11:00:00 13.9 3 Sur 8 Norte 0.2 1025.6 0.9 43
2018-01-16 10:00:00 11.1 0 Calma 6 Norte 0 1025.4 0.9 56
2018-01-16 09:00:00 6.5 4 Nordeste 11 Noroeste 0 1024.8 0.4 72
2018-01-16 08:00:00 5.8 4 Noroeste 11 Oeste 0 1024.7 0.5 72
2018-01-16 07:00:00 5.8 0 Calma 15 Noroeste 0 1024.5 -0.5 71
2018-01-16 06:00:00 5.8 3 Oeste 15 Noroeste 0 1024.4 -0.7 72
2018-01-16 05:00:00 6.3 6 Norte 10 Norte 0 1024.2 -1.2 73
2018-01-16 04:00:00 5.5 3 Oeste 5 Oeste 0 1025 -0.9 76
2018-01-16 03:00:00 6.5 4 Noroeste 15 Noroeste 0 1025.1 -1.2 73
2018-01-16 02:00:00 6.8 5 Oeste 10 Oeste 0 1025.4 -0.8 74
2018-01-16 01:00:00 7.6 3 Noroeste 10 Norte 0 1025.9 0.4 70
2018-01-16 00:00:00 8.7 6 Noroeste 14 Noroeste 0 1026.3 1 68
2018-01-15 23:00:00 8.6 4 Noroeste 13 Noroeste 0 1026.2 1.9 70
2018-01-15 22:00:00 9.9 5 Noroeste 9 Oeste 0 1025.5 2 68
2018-01-15 21:00:00 11.6 4 Noroeste 8 Noroeste 0 1025.3 2.5 66
2018-01-15 20:00:00 12.6 4 Norte 6 Norte 0 1024.3 1.9 61
2018-01-15 19:00:00 13.1 2 Sudoeste 5 Sudeste 0 1023.5 1.6 56
2018-01-15 18:00:00 13.8 0 Calma 6 Sudoeste 0 1022.8 1.2 52
2018-01-15 17:00:00 14.1 3 Sudoeste 12 Oeste 0 1022.4 0.9 49
2018-01-15 16:00:00 14.2 6 Sur 12 Sur 0 1021.9 -0.1 48
2018-01-15 15:00:00 14.3 10 Este 23 Este 0 1021.6 -0.6 46
2018-01-15 14:00:00 14 11 Este 23 Nordeste 0 1021.5 -0.5 49
2018-01-15 13:00:00 13.9 9 Nordeste 21 Nordeste 0 1022 1.2 48
2018-01-15 12:00:00 12.6 6 Noroeste 22 Norte 0 1022.2 2.3 56
2018-01-15 11:00:00 11.4 12 Norte 29 Norte 0 1022 2.8 57
2018-01-15 10:00:00 10.4 10 Noroeste 26 Norte 0 1020.8 2.3 62
2018-01-15 09:00:00 9.1 14 Noroeste 23 Noroeste 0 1019.9 2.1 68
2018-01-15 08:00:00 9.3 10 Noroeste 27 Noroeste 0 1019.2 1.6 67
2018-01-15 07:00:00 9 7 Norte 14 Norte 0 1018.5 1.2 65
2018-01-15 06:00:00 8.9 7 Norte 15 Norte 0 1017.8 0.4 65
2018-01-15 05:00:00 8.5 8 Noroeste 17 Noroeste 0 1017.6 0.3 65
2018-01-15 04:00:00 8.8 10 Norte 29 Norte 0 1017.3 0.2 65
2018-01-15 03:00:00 8.7 13 Norte 32 Norte 0 1017.4 0.1 68
2018-01-15 02:00:00 9 13 Norte 30 Norte 0 1017.3 0.7 68
2018-01-15 01:00:00 9.3 9 Norte 23 Norte 0 1017.1 1 72
2018-01-15 00:00:00 9.4 8 Norte 19 Norte 0.4 1017.3 2.3 76
2018-01-14 23:00:00 9.5 4 Norte 17 Norte 0.8 1016.6 1.8 77
2018-01-14 22:00:00 9.8 9 Noroeste 21 Noroeste 0 1016.1 2.2 74
2018-01-14 21:00:00 9.7 9 Nordeste 14 Este 0.6 1015 1.6 77
2018-01-14 20:00:00 9.9 10 Nordeste 32 Nordeste 0.6 1014.8 1.4 73
2018-01-14 19:00:00 10.8 21 Norte 39 Norte 0.2 1013.9 0.3 71
2018-01-14 18:00:00 13.6 8 Sudeste 17 Sudeste 0 1013.4 -0.2 60
2018-01-14 17:00:00 13.9 5 Sur 19 Sur 0 1013.4 -0.6 57
2018-01-14 16:00:00 14.1 9 Sur 21 Sudeste 0 1013.6 -1.4 57
2018-01-14 15:00:00 14.3 10 Sur 22 Sur 0 1013.6 -2.2 58
2018-01-14 14:00:00 15.3 11 Sur 19 Sur 0 1014 -2.1 47
2018-01-14 13:00:00 15.3 9 Oeste 29 Oeste 0 1015 -1.1 33
2018-01-14 12:00:00 16.2 10 Oeste 19 Noroeste 0 1015.8 0.4 32
2018-01-14 11:00:00 16.7 11 Oeste 26 Noroeste 0 1016.1 0.8 31
2018-01-14 10:00:00 13.3 15 Noroeste 31 Noroeste 0 1016.1 0.8 42
2018-01-14 09:00:00 11.5 19 Noroeste 32 Noroeste 0 1015.4 0.5 46
2018-01-14 08:00:00 9.8 10 Noroeste 26 Noroeste 0 1015.3 0.1 53
2018-01-14 07:00:00 9.6 12 Noroeste 29 Noroeste 0 1015.3 0.2 55
2018-01-14 06:00:00 10.5 21 Noroeste 31 Noroeste 0 1014.9 -0.2 53
2018-01-14 05:00:00 8.8 2 Noroeste 25 Oeste 0 1015.2 0.2 56
2018-01-14 04:00:00 11.5 18 Oeste 32 Noroeste 0 1015.1 -0.1 48
2018-01-14 03:00:00 11 16 Oeste 27 Noroeste 0 1015.1 -0.7 50
2018-01-14 02:00:00 12.1 21 Noroeste 35 Noroeste 0 1015 -0.5 47
2018-01-14 01:00:00 12.3 21 Oeste 37 Oeste 0 1015.2 0 48
2018-01-14 00:00:00 12.6 17 Noroeste 32 Noroeste 0 1015.8 0.6 47
2018-01-13 23:00:00 11.9 13 Oeste 29 Oeste 0 1015.5 0.7 52
2018-01-13 22:00:00 9.6 6 Noroeste 15 Noroeste 0 1015.2 0.5 73
2018-01-13 21:00:00 9.5 6 Norte 10 Norte 0 1015.2 0.6 71
2018-01-13 20:00:00 11.3 5 Norte 8 Norte 0 1014.8 0.2 68
2018-01-13 19:00:00 11.9 4 Norte 9 Nordeste 0 1014.7 0.1 65
2018-01-13 18:00:00 13.3 2 Nordeste 15 Sudoeste 0 1014.6 -0.7 59
2018-01-13 17:00:00 13.6 7 Sur 15 Sur 0 1014.6 -0.6 64
2018-01-13 16:00:00 13.6 2 Sudoeste 14 Oeste 0 1014.6 -1.5 64
2018-01-13 15:00:00 13.2 7 Oeste 16 Sudoeste 0 1015.3 -2.3 61
2018-01-13 14:00:00 13.5 7 Sur 17 Sur 0 1015.2 -2.8 59
2018-01-13 13:00:00 14.4 9 Sur 16 Sudoeste 0 1016.1 -1.3 50
2018-01-13 12:00:00 14.9 6 Sudeste 13 Sudeste 0 1017.6 0.4 54
2018-01-13 11:00:00 13.6 8 Este 13 Este 0 1018 0.8 58
2018-01-13 10:00:00 10 3 Nordeste 8 Nordeste 0 1017.4 0.5 72
2018-01-13 09:00:00 7 2 Nordeste 8 Nordeste 0 1017.2 0.1 71
2018-01-13 08:00:00 8.1 4 Nordeste 12 Norte 0 1017.2 -0.3 60
2018-01-13 07:00:00 7.4 5 Nordeste 12 Norte 0 1016.9 -1.1 62
2018-01-13 06:00:00 7 6 Norte 12 Norte 0 1017.1 -1.3 67
2018-01-13 05:00:00 6.9 5 Norte 14 Norte 0 1017.5 -1.2 63
2018-01-13 04:00:00 7.8 8 Norte 14 Nordeste 0 1018 -1.5 54
2018-01-13 03:00:00 8.7 6 Norte 11 Norte 0 1018.4 -1.8 54
2018-01-13 02:00:00 8 4 Nordeste 11 Nordeste 0 1018.7 -1.6 53
2018-01-13 01:00:00 10 3 Nordeste 13 Nordeste 0 1019.5 -0.8 45
2018-01-13 00:00:00 10.5 6 Nordeste 12 Nordeste 0 1020.2 0.1 46
2018-01-12 23:00:00 10.9 4 Nordeste 10 Nordeste 0 1020.3 0.3 45
2018-01-12 22:00:00 10.3 5 Norte 8 Nordeste 0 1020.3 0.5 52
2018-01-12 21:00:00 10.4 3 Nordeste 8 Norte 0 1020.1 0.6 57
2018-01-12 20:00:00 12 7 Nordeste 14 Sudoeste 0 1020 0.6 54
2018-01-12 19:00:00 14.1 9 Sudoeste 31 Sudoeste 0 1019.8 0.5 46
2018-01-12 18:00:00 14.5 14 Sudoeste 32 Sudoeste 0 1019.5 -0.3 47
2018-01-12 17:00:00 15.5 14 Sudoeste 32 Sudoeste 0 1019.4 -1 49
2018-01-12 16:00:00 16 15 Sudoeste 31 Sudoeste 0 1019.3 -1.7 50
2018-01-12 15:00:00 16.9 11 Sur 28 Sudoeste 0 1019.8 -2.2 35
2018-01-12 14:00:00 16.3 14 Sudoeste 30 Sur 0 1020.4 -1.6 38
2018-01-12 13:00:00 17.7 9 Noroeste 24 Norte 0 1021 -0.5 22
2018-01-12 12:00:00 16.1 10 Noroeste 23 Oeste 0 1022 0.6 25
2018-01-12 11:00:00 15.4 9 Oeste 25 Oeste 0 1022 1.5 27
2018-01-12 10:00:00 12.6 8 Oeste 18 Noroeste 0 1021.5 1.4 33
2018-01-12 09:00:00 9.4 5 Sudoeste 25 Noroeste 0 1021.4 1.1 41
2018-01-12 08:00:00 9.4 13 Noroeste 24 Norte 0 1020.5 -0.1 39
2018-01-12 07:00:00 9.1 10 Noroeste 23 Noroeste 0 1020.1 -0.3 42
2018-01-12 06:00:00 8 10 Noroeste 19 Norte 0 1020.3 -0.1 50
2018-01-12 05:00:00 8.3 8 Noroeste 33 Noroeste 0 1020.6 0 50
2018-01-12 04:00:00 10.3 18 Noroeste 33 Noroeste 0 1020.4 -0.5 44
2018-01-12 03:00:00 10.2 15 Noroeste 27 Noroeste 0 1020.4 -0.8 45
2018-01-12 02:00:00 10.2 13 Noroeste 23 Noroeste 0 1020.6 -0.1 46
2018-01-12 01:00:00 9.7 9 Noroeste 16 Noroeste 0 1020.9 0.5 49
2018-01-12 00:00:00 9.9 9 Noroeste 16 Nordeste 0 1021.2 1.6 48
2018-01-11 23:00:00 9.5 6 Noroeste 19 Noroeste 0 1020.7 1.2 49
2018-01-11 22:00:00 10.9 6 Oeste 18 Oeste 0 1020.4 2.4 44
2018-01-11 21:00:00 11.3 12 Oeste 24 Oeste 0 1019.6 1.7 40
2018-01-11 20:00:00 12.4 7 Sudoeste 58 Oeste 0 1019.5 1 37
2018-01-11 19:00:00 13.2 26 Noroeste 55 Noroeste 0 1018 0.5 32
2018-01-11 18:00:00 13.4 22 Noroeste 44 Noroeste 0 1017.9 1 33
2018-01-11 17:00:00 14.6 17 Noroeste 56 Norte 0 1018.5 1.7 34
2018-01-11 16:00:00 16.7 24 Noroeste 50 Noroeste 0 1017.5 -0.3 28
2018-01-11 15:00:00 17 23 Noroeste 48 Noroeste 0 1016.9 -2.3 27
2018-01-11 14:00:00 17 26 Noroeste 47 Noroeste 0 1016.8 -2.3 27
2018-01-11 13:00:00 16.4 18 Noroeste 43 Noroeste 0 1017.8 -0.7 29
2018-01-11 12:00:00 17 22 Oeste 47 Oeste 0 1019.2 1 31
2018-01-11 11:00:00 15.7 25 Oeste 45 Oeste 0 1019.1 1 32
2018-01-11 10:00:00 13.6 23 Noroeste 40 Oeste 0 1018.5 0.5 34
2018-01-11 09:00:00 11.4 15 Noroeste 25 Noroeste 0 1018.2 0.8 41
2018-01-11 08:00:00 8.7 2 Norte 14 Noroeste 0 1018.1 0.6 52
2018-01-11 07:00:00 9.2 7 Noroeste 15 Noroeste 0 1018 0.5 51
2018-01-11 06:00:00 9.6 7 Noroeste 15 Noroeste 0 1017.4 0.4 51
2018-01-11 05:00:00 10.6 4 Noroeste 17 Oeste 0 1017.5 1.2 51
2018-01-11 04:00:00 12.8 14 Oeste 22 Oeste 0 1017.5 1.7 42
2018-01-11 03:00:00 13.4 4 Oeste 28 Noroeste 0 1017 1 43
2018-01-11 02:00:00 15.6 16 Noroeste 38 Noroeste 0 1016.3 0.9 33
2018-01-11 01:00:00 15.1 13 Oeste 35 Noroeste 0 1015.8 0.4 50
2018-01-11 00:00:00 15.9 7 Oeste 29 Oeste 0 1016 0.4 44
2018-01-10 23:00:00 15.1 15 Oeste 32 Oeste 0 1015.4 -0.9 40
2018-01-10 22:00:00 15.3 17 Oeste 46 Oeste 0 1015.4 -0.4 39
2018-01-10 21:00:00 14.8 10 Oeste 41 Oeste 0 1015.6 0.4 41
2018-01-10 20:00:00 15.6 21 Oeste 40 Oeste 0 1016.3 1.6 40
2018-01-10 19:00:00 16 26 Oeste 52 Noroeste 0 1015.8 1.3 38
2018-01-10 18:00:00 17.1 31 Oeste 59 Noroeste 0 1015.2 1.1 33
2018-01-10 17:00:00 18.4 31 Oeste 58 Oeste 0 1014.7 0.8 32
2018-01-10 16:00:00 19.3 30 Oeste 66 Noroeste 0 1014.5 -0.2 30
2018-01-10 15:00:00 19.3 35 Oeste 63 Oeste 0 1014.1 -2.1 33
2018-01-10 14:00:00 19.3 34 Oeste 57 Oeste 0 1013.9 -2 34
2018-01-10 13:00:00 18.1 19 Oeste 40 Oeste 0 1014.7 -0.9 45
2018-01-10 12:00:00 14.6 6 Sur 15 Sur 0 1016.2 0.7 61
2018-01-10 11:00:00 14.5 4 Sur 8 Sur 0 1015.9 1 58
2018-01-10 10:00:00 11.8 3 Oeste 8 Noroeste 0 1015.6 1.2 82
2018-01-10 09:00:00 9 3 Oeste 8 Norte 0 1015.5 1.2 84
2018-01-10 08:00:00 9.6 3 Norte 7 Nordeste 0 1014.9 0.6 83
2018-01-10 07:00:00 9.7 2 Sudeste 7 Noroeste 0.2 1014.4 -0.4 82
2018-01-10 06:00:00 9.9 2 Nordeste 13 Noroeste 1.4 1014.3 -1.3 81
2018-01-10 05:00:00 10.2 3 Noroeste 9 Norte 0.2 1014.3 -2.1 78
2018-01-10 04:00:00 10.4 4 Nordeste 6 Nordeste 0 1014.8 -1.6 76
2018-01-10 03:00:00 10.5 2 Sudoeste 11 Noroeste 0 1015.6 -1.3 74
2018-01-10 02:00:00 10 7 Noroeste 13 Noroeste 1.2 1016.4 -0.8 76
2018-01-10 01:00:00 11.2 2 Nordeste 7 Nordeste 0 1016.4 -0.8 63
2018-01-10 00:00:00 11.6 4 Nordeste 10 Norte 0 1016.9 0 54
2018-01-09 23:00:00 10.2 2 Oeste 7 Noroeste 0 1017.2 0.5 63
2018-01-09 22:00:00 10.3 4 Este 9 Norte 0 1017.2 0.9 63
2018-01-09 21:00:00 11.4 4 Nordeste 9 Nordeste 0 1016.9 0.9 61
2018-01-09 20:00:00 12.3 6 Nordeste 10 Nordeste 0 1016.7 1.3 59
2018-01-09 19:00:00 12.9 2 Oeste 9 Sudoeste 0 1016.3 0.7 58
2018-01-09 18:00:00 13.5 3 Norte 8 Oeste 0 1016 0.2 54
2018-01-09 17:00:00 14.2 4 Sudoeste 23 Sudoeste 0 1015.4 -0.9 52
2018-01-09 16:00:00 14.5 8 Sudoeste 17 Sudoeste 0 1015.6 -1.3 48
2018-01-09 15:00:00 14 4 Sur 15 Sur 0 1015.8 -1.3 54
2018-01-09 14:00:00 13.8 8 Sudoeste 23 Sudoeste 0 1016.3 -1.1 52
2018-01-09 13:00:00 14.2 12 Sudoeste 23 Sudoeste 0 1016.9 0 42
2018-01-09 12:00:00 15.1 6 Sudoeste 13 Sudoeste 0 1017.1 1.1 36
2018-01-09 11:00:00 14.7 7 Oeste 13 Noroeste 0 1017.4 2.3 37
2018-01-09 10:00:00 10.9 8 Noroeste 13 Noroeste 0 1016.9 2.5 53
2018-01-09 09:00:00 6 4 Noroeste 7 Norte 0 1016 2.3 72
2018-01-09 08:00:00 5.5 6 Norte 9 Norte 0 1015.1 1.9 72
2018-01-09 07:00:00 5.6 0 Calma 9 Norte 0 1014.4 1.4 73
2018-01-09 06:00:00 5.7 3 Norte 9 Norte 0 1013.7 1.4 73
2018-01-09 05:00:00 5.2 2 Nordeste 5 Norte 0 1013.2 0.9 75
2018-01-09 04:00:00 6.1 3 Sudeste 10 Norte 0 1013 0.6 76
2018-01-09 03:00:00 6.1 5 Noroeste 9 Norte 0 1012.3 0.2 77
2018-01-09 02:00:00 6.1 6 Norte 11 Norte 0 1012.3 0.7 78
2018-01-09 01:00:00 6.9 4 Norte 9 Nordeste 0 1012.4 1.1 77
2018-01-09 00:00:00 6.8 2 Norte 7 Norte 0 1012.1 1.2 76
2018-01-08 23:00:00 7.4 4 Noroeste 8 Norte 0 1011.6 1.4 75
2018-01-08 22:00:00 7.6 2 Norte 7 Nordeste 0 1011.3 1.5 71
2018-01-08 21:00:00 8.2 2 Nordeste 8 Norte 0 1010.9 2 63
2018-01-08 20:00:00 9.3 6 Nordeste 11 Nordeste 0 1010.2 1.9 59
2018-01-08 19:00:00 10 2 Norte 7 Sur 0 1009.8 1.9 56
2018-01-08 18:00:00 12 4 Sur 8 Sur 0 1008.9 1.1 50
2018-01-08 17:00:00 13.1 5 Sur 13 Sur 0 1008.3 0.6 43
2018-01-08 16:00:00 13 5 Sur 13 Sur 0 1007.9 0 40
2018-01-08 15:00:00 12.6 6 Sudeste 15 Sudeste 0 1007.8 0.1 40
2018-01-08 14:00:00 12.9 8 Sur 17 Sudeste 0 1007.7 0 39
2018-01-08 13:00:00 12.7 9 Sudeste 18 Sudeste 0 1007.9 0.6 39
2018-01-08 12:00:00 12.9 6 Sur 10 Sur 0 1007.7 0.8 36
2018-01-08 11:00:00 13.3 0 Calma 6 Oeste 0 1007.7 1.6 36
2018-01-08 10:00:00 10.4 0 Calma 10 Norte 0 1007.3 1.9 48
2018-01-08 09:00:00 5.3 9 Norte 11 Norte 0 1006.9 2 64
2018-01-08 08:00:00 4.6 3 Norte 10 Nordeste 0 1006.1 1.9 64
2018-01-08 07:00:00 5.5 8 Norte 11 Norte 0 1005.4 1.4 60
2018-01-08 06:00:00 4.3 3 Norte 8 Norte 0 1004.9 1.4 66
2018-01-08 05:00:00 4.9 4 Nordeste 9 Norte 0 1004.2 1 64
2018-01-08 04:00:00 5.4 5 Norte 9 Norte 0 1004 0.6 63
2018-01-08 03:00:00 5.4 3 Nordeste 6 Nordeste 0 1003.5 0.1 64
2018-01-08 02:00:00 5.5 3 Noroeste 7 Noroeste 0 1003.2 0.5 63
2018-01-08 01:00:00 6 4 Norte 11 Noroeste 0 1003.4 1.1 58
2018-01-08 00:00:00 6.7 3 Noroeste 12 Norte 0 1003.4 1.4 55
2018-01-07 23:00:00 7.5 5 Norte 11 Noroeste 0 1002.7 1.1 54
2018-01-07 22:00:00 7.9 6 Noroeste 10 Noroeste 0 1002.3 1.1 53
2018-01-07 21:00:00 8.6 6 Norte 11 Norte 0 1002 1.6 52
2018-01-07 20:00:00 9.6 6 Norte 20 Sudoeste 0 1001.6 1.8 44
2018-01-07 19:00:00 11.6 11 Sudoeste 36 Sur 0 1001.2 2.1 41
2018-01-07 18:00:00 12.3 19 Sudoeste 37 Sudoeste 0 1000.4 1.6 36
2018-01-07 17:00:00 13.3 11 Sudoeste 24 Sudoeste 0 999.8 0.9 40
2018-01-07 16:00:00 13.5 10 Sudoeste 26 Sudoeste 0 999.1 0 34
2018-01-07 15:00:00 13.4 10 Sudeste 20 Sudeste 0 998.8 -0.4 37
2018-01-07 14:00:00 12.7 10 Sudeste 21 Sur 0 998.9 -0.1 37
2018-01-07 13:00:00 13.1 12 Sur 22 Sudoeste 0 999.1 0.7 34
2018-01-07 12:00:00 13.8 7 Sur 15 Oeste 0 999.2 1.3 29
2018-01-07 11:00:00 12.6 8 Noroeste 19 Oeste 0 999 1.9 31
2018-01-07 10:00:00 10 7 Noroeste 15 Noroeste 0 998.4 2.1 41
2018-01-07 09:00:00 6.8 7 Norte 15 Norte 0 997.9 2.2 52
2018-01-07 08:00:00 7.9 4 Oeste 16 Noroeste 0 997.1 1.3 46
2018-01-07 07:00:00 8.7 8 Nordeste 31 Noroeste 0 996.3 0.3 42
2018-01-07 06:00:00 9.3 10 Noroeste 32 Noroeste 0 995.7 -0.4 40
2018-01-07 05:00:00 9.5 17 Noroeste 33 Noroeste 0 995.8 0.6 41
2018-01-07 04:00:00 10.2 19 Noroeste 50 Noroeste 0 996 0.3 40
2018-01-07 03:00:00 10.7 24 Noroeste 38 Noroeste 0 996.1 0.5 41
2018-01-07 02:00:00 10.9 25 Noroeste 44 Noroeste 0 995.2 0 43
2018-01-07 01:00:00 10.6 11 Noroeste 26 Noroeste 0 995.7 0.3 46
2018-01-07 00:00:00 10.4 13 Oeste 22 Oeste 0 995.6 1.2 46
2018-01-06 23:00:00 10.1 11 Oeste 26 Oeste 0 995.2 1.7 53
2018-01-06 22:00:00 10.9 12 Oeste 37 Oeste 0 995.4 2.4 48
2018-01-06 21:00:00 10.1 9 Oeste 33 Noroeste 0 994.4 2.6 51
2018-01-06 20:00:00 10.8 23 Noroeste 50 Noroeste 0 993.5 2 48
2018-01-06 19:00:00 11.4 23 Oeste 58 Oeste 0 993 1.8 48
2018-01-06 18:00:00 12.2 29 Oeste 48 Oeste 0 991.8 0.1 47
2018-01-06 17:00:00 13.5 18 Sudoeste 39 Sudoeste 0 991.5 -0.7 62
2018-01-06 16:00:00 15.2 19 Sudoeste 36 Sudoeste 0 991.2 -2 62
2018-01-06 15:00:00 15.5 15 Sudoeste 43 Sudoeste 0 991.7 -2.4 53
2018-01-06 14:00:00 15.3 17 Sur 32 Sur 0.2 992.2 -3 76
2018-01-06 13:00:00 15.3 11 Sudeste 23 Sudeste 0 993.2 -2.6 72
2018-01-06 12:00:00 14.9 8 Sudeste 14 Sudeste 0 994.1 -1.9 73
2018-01-06 11:00:00 14.3 6 Este 14 Este 0 995.2 -1.3 75
2018-01-06 10:00:00 13 6 Este 10 Este 0 995.8 -0.9 80
2018-01-06 09:00:00 12.1 8 Este 15 Este 0 996 -1 82
2018-01-06 08:00:00 11 7 Nordeste 12 Nordeste 0 996.5 -1.8 83
2018-01-06 07:00:00 10.5 5 Nordeste 9 Nordeste 0 996.7 -2.9 81
2018-01-06 06:00:00 11.2 4 Nordeste 11 Nordeste 0 997 -3.4 79
2018-01-06 05:00:00 11 7 Norte 12 Norte 0 998.3 -3.3 75
2018-01-06 04:00:00 9.5 5 Nordeste 11 Norte 0 999.6 -3.1 77
2018-01-06 03:00:00 9.1 2 Nordeste 10 Nordeste 0 1000.4 -3.4 78
2018-01-06 02:00:00 9.3 6 Nordeste 12 Nordeste 0 1001.6 -2.7 78
2018-01-06 01:00:00 8.9 3 Este 6 Nordeste 0 1002.7 -2.1 78
2018-01-06 00:00:00 9.3 2 Noroeste 7 Norte 0 1003.8 -1.4 76
2018-01-05 23:00:00 10.1 4 Norte 9 Norte 0 1004.3 -1.5 75
2018-01-05 22:00:00 11.4 3 Nordeste 10 Norte 0 1004.8 -1.4 74
2018-01-05 21:00:00 11.7 3 Nordeste 6 Nordeste 0 1005.2 -1.2 73
2018-01-05 20:00:00 12.7 0 Calma 10 Nordeste 0 1005.8 -1.1 69
2018-01-05 19:00:00 13.7 5 Norte 8 Norte 0 1006.2 -1.1 68
2018-01-05 18:00:00 15.6 3 Noroeste 9 Noroeste 0 1006.4 -1.7 64
2018-01-05 17:00:00 16.3 3 Sudoeste 10 Sur 0 1006.9 -1.9 66
2018-01-05 16:00:00 16.2 6 Sur 14 Sur 0 1007.3 -3 66
2018-01-05 15:00:00 16.5 7 Sudoeste 17 Sur 0 1008.1 -3.9 70
2018-01-05 14:00:00 17.2 6 Sur 14 Sur 0 1008.8 -3.9 59
2018-01-05 13:00:00 17.1 5 Sur 14 Sur 0 1010.3 -2.4 51
2018-01-05 12:00:00 17.4 4 Sur 12 Sur 0 1012 -0.8 45
2018-01-05 11:00:00 16.2 4 Sur 8 Sudeste 0 1012.7 -0.3 52
2018-01-05 10:00:00 14.1 4 Sur 10 Norte 0 1012.7 -0.4 59
2018-01-05 09:00:00 10.6 3 Nordeste 12 Noroeste 0 1012.8 -0.5 70
2018-01-05 08:00:00 10.8 7 Norte 12 Noroeste 0 1013 -0.6 67
2018-01-05 07:00:00 9.8 5 Norte 12 Noroeste 0 1013.1 -1 73
2018-01-05 06:00:00 9.9 4 Nordeste 10 Norte 0 1013.3 -1.3 72
2018-01-05 05:00:00 9.7 3 Noroeste 13 Norte 0 1013.6 -1.6 74
2018-01-05 04:00:00 10.4 4 Norte 10 Norte 0 1014.1 -2.1 72
2018-01-05 03:00:00 11.3 2 Norte 10 Norte 0 1014.6 -2.4 69
2018-01-05 02:00:00 12.2 3 Oeste 12 Norte 0 1015.2 -2.4 70
2018-01-05 01:00:00 11.6 3 Este 8 Noroeste 0 1016.2 -1.3 74
2018-01-05 00:00:00 12.9 4 Norte 12 Este 0 1017 -0.6 73
2018-01-04 23:00:00 12.5 5 Este 12 Este 0 1017.6 -0.3 79
2018-01-04 22:00:00 14.1 3 Sur 9 Sudoeste 0 1017.5 -0.4 74
2018-01-04 21:00:00 13.6 2 Sur 5 Sudeste 0 1017.6 -0.3 73
2018-01-04 20:00:00 14.5 3 Este 9 Nordeste 0 1017.9 -0.2 74
2018-01-04 19:00:00 15.4 2 Este 12 Este 0 1017.9 -0.5 73
2018-01-04 18:00:00 17 5 Sudeste 10 Sudeste 0 1017.9 -1 65
2018-01-04 17:00:00 18.7 4 Sudeste 12 Sur 0 1018.1 -2 59
2018-01-04 16:00:00 19.2 7 Sur 12 Sur 0 1018.4 -2.9 56
2018-01-04 15:00:00 21.8 2 Este 6 Sur 0 1018.9 -3.4 31
2018-01-04 14:00:00 19.4 6 Sur 12 Sudoeste 0 1020.1 -2.7 42
2018-01-04 13:00:00 19.1 5 Sur 12 Sur 0 1021.3 -1.4 49
2018-01-04 12:00:00 19.4 5 Sur 10 Sudeste 0 1022.3 -0.1 46
2018-01-04 11:00:00 18.4 5 Sur 8 Sur 0 1022.8 0.3 55
2018-01-04 10:00:00 17.1 3 Sudeste 7 Este 0 1022.7 0.1 58
2018-01-04 09:00:00 11.2 2 Este 7 Nordeste 0 1022.4 -0.3 71
2018-01-04 08:00:00 10.9 2 Norte 8 Nordeste 0 1022.5 -0.2 70
2018-01-04 07:00:00 11.3 2 Norte 10 Norte 0 1022.6 -0.5 67
2018-01-04 06:00:00 12.1 5 Norte 10 Este 0 1022.7 -0.7 68
2018-01-04 05:00:00 13.1 7 Este 13 Este 0 1022.7 -1.6 64
2018-01-04 04:00:00 13.1 6 Oeste 13 Noroeste 0 1023.1 -1.1 63
2018-01-04 03:00:00 13.1 4 Noroeste 8 Nordeste 0 1023.4 -0.9 67
2018-01-04 02:00:00 12.9 4 Noroeste 8 Noroeste 0 1024.3 -0.1 64
2018-01-04 01:00:00 14 7 Sudeste 15 Este 0 1024.2 -0.5 57
2018-01-04 00:00:00 14.7 3 Norte 18 Noroeste 0 1024.3 -0.3 58
2018-01-03 23:00:00 17 13 Noroeste 22 Noroeste 0 1024.4 0.2 47
2018-01-03 22:00:00 13.7 4 Norte 9 Norte 0 1024.7 0.7 68
2018-01-03 21:00:00 14.2 3 Sudeste 10 Este 0 1024.6 0.4 67
2018-01-03 20:00:00 14.5 3 Nordeste 9 Norte 0 1024.2 0.4 68
2018-01-03 19:00:00 15 5 Noroeste 9 Oeste 0 1024 0 70
2018-01-03 18:00:00 17.5 3 Sudoeste 12 Sudeste 0 1024.2 -0.2 58
2018-01-03 17:00:00 20 5 Sudeste 10 Sudeste 0 1023.8 -1.7 43
2018-01-03 16:00:00 20.7 3 Sur 11 Sudoeste 0 1024 -2.3 39
2018-01-03 15:00:00 19.1 6 Sur 14 Sur 0 1024.4 -2.9 46
2018-01-03 14:00:00 20.2 6 Sur 15 Sur 0 1025.5 -1.8 42
2018-01-03 13:00:00 19.7 10 Sudeste 19 Sur 0 1026.3 -0.6 47
2018-01-03 12:00:00 20.5 9 Sudeste 15 Sudeste 0 1027.3 1.1 40
2018-01-03 11:00:00 19.8 4 Sur 16 Sudoeste 0 1027.3 1.3 45
2018-01-03 10:00:00 18.7 9 Oeste 23 Norte 0 1026.9 1.4 44
2018-01-03 09:00:00 16.7 11 Norte 23 Norte 0 1026.2 1.2 46
2018-01-03 08:00:00 13.2 4 Norte 11 Nordeste 0 1026 0.7 57
2018-01-03 07:00:00 14.7 8 Este 26 Noroeste 0 1025.5 0 50
2018-01-03 06:00:00 13.7 10 Noroeste 15 Noroeste 0 1025 -0.8 55
2018-01-03 05:00:00 11.7 4 Nordeste 8 Norte 0 1025.3 -0.5 60
2018-01-03 04:00:00 11.5 0 Calma 10 Norte 0 1025.5 -0.9 60
2018-01-03 03:00:00 12.6 3 Sudeste 13 Sur 0 1025.8 -0.5 55
2018-01-03 02:00:00 12.9 6 Noroeste 9 Norte 0 1025.8 -0.2 54
2018-01-03 01:00:00 12.3 0 Calma 9 Norte 0 1026.4 0.5 54
2018-01-03 00:00:00 12.3 7 Este 12 Sudeste 0 1026.3 0.6 53
2018-01-02 23:00:00 12.2 4 Noroeste 10 Sudeste 0 1026 -0.3 56
2018-01-02 22:00:00 14.1 5 Noroeste 21 Norte 0 1025.9 -0.1 43
2018-01-02 21:00:00 12.9 7 Noroeste 14 Noroeste 0 1025.7 0.1 52
2018-01-02 20:00:00 13.1 4 Norte 9 Noroeste 0 1026.3 0.8 54
2018-01-02 19:00:00 14.3 0 Calma 10 Noroeste 0 1026 0.7 51
2018-01-02 18:00:00 16.3 4 Oeste 9 Oeste 0 1025.6 0.4 43
2018-01-02 17:00:00 18.3 2 Sur 13 Sudoeste 0 1025.5 -0.5 36
2018-01-02 16:00:00 18 6 Sur 18 Sur 0 1025.3 -1.5 37
2018-01-02 15:00:00 20.2 5 Oeste 12 Sudoeste 0 1025.2 -2.1 24
2018-01-02 14:00:00 18.6 8 Sur 14 Sur 0 1026 -1.4 38
2018-01-02 13:00:00 18.1 4 Sur 15 Sur 0 1026.8 0.1 34
2018-01-02 12:00:00 18.2 8 Sudeste 24 Este 0 1027.3 0.5 29
2018-01-02 11:00:00 17.8 14 Sudeste 21 Sudeste 0 1027.4 1 39
2018-01-02 10:00:00 16.4 6 Nordeste 12 Nordeste 0 1026.7 0.7 44
2018-01-02 09:00:00 12.2 7 Nordeste 15 Norte 0 1026.8 0.4 38
2018-01-02 08:00:00 11.3 5 Norte 16 Oeste 0 1026.4 0 50
2018-01-02 07:00:00 10.4 7 Noroeste 13 Norte 0 1026 -0.7 43
2018-01-02 06:00:00 10.5 4 Norte 11 Norte 0 1026.4 -0.3 37
2018-01-02 05:00:00 12.3 11 Norte 16 Norte 0 1026.4 -0.3 30
2018-01-02 04:00:00 10.9 4 Este 8 Este 0 1026.7 -0.8 32
2018-01-02 03:00:00 11.7 3 Norte 11 Noroeste 0 1026.7 -0.8 29
2018-01-02 02:00:00 13.3 3 Sudeste 15 Noroeste 0 1026.7 -0.7 27
2018-01-02 01:00:00 13.6 14 Oeste 29 Noroeste 0 1027.5 0.6 22
2018-01-02 00:00:00 14.4 16 Noroeste 28 Noroeste 0 1027.5 1.1 22
2018-01-01 23:00:00 14.5 5 Nordeste 25 Noroeste 0 1027.4 1.7 19
2018-01-01 22:00:00 14.6 4 Nordeste 24 Noroeste 0 1026.9 0.7 16
2018-01-01 21:00:00 16.1 11 Noroeste 30 Noroeste 0 1026.4 0.2 14
2018-01-01 20:00:00 13 10 Norte 18 Norte 0 1025.7 -0.4 49
2018-01-01 19:00:00 13.7 4 Nordeste 10 Nordeste 0 1026.2 0 66
2018-01-01 18:00:00 15.9 4 Sur 18 Sudoeste 0 1026.2 -0.5 57
2018-01-01 17:00:00 17.3 7 Sudoeste 18 Sur 0 1026.1 -1.9 55
2018-01-01 16:00:00 18.1 4 Nordeste 16 Oeste 0 1026.2 -2.7 49
2018-01-01 15:00:00 18.1 10 Sudoeste 28 Sudoeste 0 1026.7 -2.7 46
2018-01-01 14:00:00 18.1 10 Sudoeste 27 Sudoeste 0 1028 -1.7 42
2018-01-01 13:00:00 17.5 9 Sur 20 Sur 0 1028.9 -0.5 48
2018-01-01 12:00:00 16.8 9 Sur 19 Sur 0 1029.4 0.3 37
2018-01-01 11:00:00 17.7 9 Sudoeste 15 Sur 0 1029.7 0.8 28
2018-01-01 10:00:00 16.1 9 Noroeste 23 Noroeste 0 1029.4 0.8 29
2018-01-01 09:00:00 11.2 10 Norte 22 Noroeste 0 1029.1 1.1 46
2018-01-01 08:00:00 10.1 6 Oeste 19 Noroeste 0 1028.9 0.9 48
2018-01-01 07:00:00 10.7 9 Noroeste 16 Noroeste 0 1028.6 1 49
2018-01-01 06:00:00 10.5 3 Oeste 12 Norte 0 1028 0.8 53
2018-01-01 05:00:00 11.9 4 Sur 23 Noroeste 0 1028 1.9 49
2018-01-01 04:00:00 14.6 13 Noroeste 38 Noroeste 0 1027.6 2.2 38
2018-01-01 03:00:00 15.7 15 Noroeste 30 Noroeste 0 1027.2 3 35
2018-01-01 02:00:00 15.8 10 Noroeste 27 Noroeste 0 1026.1 3.2 34
2018-01-01 01:00:00 17.1 9 Norte 33 Oeste 0 1025.4 3.3 35
2018-01-01 00:00:00 17.6 21 Oeste 37 Oeste 0 1024.2 3.2 42
2017-12-31 23:00:00 18 15 Oeste 41 Noroeste 0 1022.9 2.9 42
2017-12-31 22:00:00 17.7 19 Oeste 47 Oeste 0 1022.1 2.6 42
2017-12-31 21:00:00 17.8 18 Oeste 42 Noroeste 0 1021 3.2 42
2017-12-31 20:00:00 18.1 26 Oeste 45 Oeste 0 1020 2.3 42
2017-12-31 19:00:00 18.8 23 Noroeste 45 Noroeste 0.2 1019.5 2 41
2017-12-31 18:00:00 19.9 16 Noroeste 45 Noroeste 0 1017.8 -0.1 35
2017-12-31 17:00:00 16.5 2 Oeste 6 Oeste 0 1017.7 -0.9 61
2017-12-31 16:00:00 16.5 4 Oeste 8 Oeste 0 1017.5 -2.2 61
2017-12-31 15:00:00 14.6 2 Norte 7 Sur 0 1017.9 -2.8 84
2017-12-31 14:00:00 13.5 5 Sur 8 Sudoeste 0 1018.6 -2.3 87
2017-12-31 13:00:00 13 2 Nordeste 5 Este 0 1019.7 -1.1 89
2017-12-31 12:00:00 12.8 2 Sur 8 Sur 0 1020.7 0.1 89
2017-12-31 11:00:00 12.5 3 Nordeste 10 Nordeste 0 1020.9 0.3 89
2017-12-31 10:00:00 11.7 5 Este 10 Este 0 1020.8 0.6 89
2017-12-31 09:00:00 11.2 3 Norte 9 Norte 0 1020.6 0.1 88
2017-12-31 08:00:00 11.2 3 Nordeste 7 Este 0 1020.6 0 87
2017-12-31 07:00:00 10.3 0 Calma 6 Este 0 1020.2 -0.7 86
2017-12-31 06:00:00 9.7 0 Calma 5 Nordeste 0 1020.5 -0.8 84
2017-12-31 05:00:00 9.5 3 Nordeste 8 Nordeste 0 1020.6 -1 83
2017-12-31 04:00:00 10.1 5 Norte 7 Nordeste 0 1020.9 -0.7 83
2017-12-31 03:00:00 9.7 0 Calma 5 Norte 0 1021.3 -0.6 82
2017-12-31 02:00:00 10.8 3 Norte 6 Norte 0 1021.6 -0.8 81
2017-12-31 01:00:00 11.2 2 Sur 8 Este 0 1021.6 -1.1 80